sensor_id;sensor_type;location;lat;lon;timestamp;pressure;altitude;pressure_sealevel;temperature;humidity
3464;BME280;3551;41.578;24.706;2023-06-04T05:04:15;91528.94;;;15.87;100.00
3464;BME280;3551;41.578;24.706;2023-06-04T05:06:42;91534.81;;;16.01;100.00
3464;BME280;3551;41.578;24.706;2023-06-04T05:09:09;91534.38;;;16.22;100.00
3464;BME280;3551;41.578;24.706;2023-06-04T05:11:36;91537.34;;;16.28;100.00
3464;BME280;3551;41.578;24.706;2023-06-04T05:14:03;91538.44;;;16.30;100.00
3464;BME280;3551;41.578;24.706;2023-06-04T05:16:30;91535.53;;;16.41;100.00
3464;BME280;3551;41.578;24.706;2023-06-04T05:18:57;91539.50;;;16.53;100.00
3464;BME280;3551;41.578;24.706;2023-06-04T05:21:25;91543.97;;;16.43;100.00
3464;BME280;3551;41.578;24.706;2023-06-04T05:23:54;91555.97;;;16.22;100.00
3464;BME280;3551;41.578;24.706;2023-06-04T05:26:20;91556.16;;;16.31;100.00
3464;BME280;3551;41.578;24.706;2023-06-04T05:28:50;91557.19;;;16.38;100.00
3464;BME280;3551;41.578;24.706;2023-06-04T05:31:17;91562.47;;;16.25;100.00
3464;BME280;3551;41.578;24.706;2023-06-04T05:33:44;91561.09;;;16.17;100.00
3464;BME280;3551;41.578;24.706;2023-06-04T05:36:15;91560.19;;;15.84;100.00
3464;BME280;3551;41.578;24.706;2023-06-04T05:38:44;91565.78;;;15.73;100.00
3464;BME280;3551;41.578;24.706;2023-06-04T05:41:10;91567.72;;;15.73;100.00
3464;BME280;3551;41.578;24.706;2023-06-04T05:43:37;91568.72;;;15.59;100.00
3464;BME280;3551;41.578;24.706;2023-06-04T05:46:04;91575.13;;;15.69;100.00
3464;BME280;3551;41.578;24.706;2023-06-04T05:48:32;91566.63;;;15.90;100.00
3464;BME280;3551;41.578;24.706;2023-06-04T05:50:59;91575.50;;;16.10;100.00
3464;BME280;3551;41.578;24.706;2023-06-04T05:53:26;91571.75;;;16.24;100.00
3464;BME280;3551;41.578;24.706;2023-06-04T05:55:54;91572.34;;;16.31;100.00
3464;BME280;3551;41.578;24.706;2023-06-04T05:58:21;91582.25;;;16.38;100.00
3464;BME280;3551;41.578;24.706;2023-06-04T06:00:48;91585.13;;;16.47;100.00
3464;BME280;3551;41.578;24.706;2023-06-04T06:03:15;91595.94;;;16.47;100.00
3464;BME280;3551;41.578;24.706;2023-06-04T06:05:42;91594.41;;;16.46;100.00
3464;BME280;3551;41.578;24.706;2023-06-04T06:08:09;91601.69;;;16.49;100.00
3464;BME280;3551;41.578;24.706;2023-06-04T06:10:36;91601.22;;;16.54;100.00
3464;BME280;3551;41.578;24.706;2023-06-04T06:13:04;91599.63;;;16.57;100.00
3464;BME280;3551;41.578;24.706;2023-06-04T06:15:31;91609.53;;;16.63;100.00
3464;BME280;3551;41.578;24.706;2023-06-04T06:17:58;91600.41;;;16.57;100.00
3464;BME280;3551;41.578;24.706;2023-06-04T06:20:25;91606.75;;;16.27;100.00
3464;BME280;3551;41.578;24.706;2023-06-04T06:22:51;91605.69;;;16.41;100.00
3464;BME280;3551;41.578;24.706;2023-06-04T06:25:18;91609.28;;;16.58;100.00
3464;BME280;3551;41.578;24.706;2023-06-04T06:27:45;91609.94;;;16.62;100.00
3464;BME280;3551;41.578;24.706;2023-06-04T06:30:15;91604.31;;;16.53;100.00
3464;BME280;3551;41.578;24.706;2023-06-04T06:32:41;91603.06;;;16.38;100.00
3464;BME280;3551;41.578;24.706;2023-06-04T06:35:08;91613.53;;;16.55;100.00
3464;BME280;3551;41.578;24.706;2023-06-04T06:37:35;91621.91;;;16.61;100.00
3464;BME280;3551;41.578;24.706;2023-06-04T06:40:07;91617.78;;;16.56;100.00
3464;BME280;3551;41.578;24.706;2023-06-04T06:42:34;91618.59;;;16.33;100.00
3464;BME280;3551;41.578;24.706;2023-06-04T06:45:01;91621.06;;;16.44;100.00
3464;BME280;3551;41.578;24.706;2023-06-04T06:47:29;91627.03;;;16.36;100.00
3464;BME280;3551;41.578;24.706;2023-06-04T06:49:56;91623.63;;;16.51;100.00
3464;BME280;3551;41.578;24.706;2023-06-04T06:52:23;91619.63;;;16.59;100.00
3464;BME280;3551;41.578;24.706;2023-06-04T06:54:49;91629.31;;;16.76;100.00
3464;BME280;3551;41.578;24.706;2023-06-04T06:57:18;91625.97;;;16.88;100.00
3464;BME280;3551;41.578;24.706;2023-06-04T06:59:44;91636.75;;;16.88;100.00
3464;BME280;3551;41.578;24.706;2023-06-04T07:02:11;91632.72;;;16.97;100.00
3464;BME280;3551;41.578;24.706;2023-06-04T07:04:39;91640.41;;;16.98;100.00
3464;BME280;3551;41.578;24.706;2023-06-04T07:07:06;91630.00;;;16.61;100.00
3464;BME280;3551;41.578;24.706;2023-06-04T07:09:32;91638.66;;;16.13;100.00
3464;BME280;3551;41.578;24.706;2023-06-04T07:11:59;91645.97;;;15.93;100.00
3464;BME280;3551;41.578;24.706;2023-06-04T07:14:26;91645.47;;;15.98;100.00
3464;BME280;3551;41.578;24.706;2023-06-04T07:16:53;91641.94;;;15.81;100.00
3464;BME280;3551;41.578;24.706;2023-06-04T07:19:19;91646.13;;;15.82;100.00
3464;BME280;3551;41.578;24.706;2023-06-04T07:21:47;91659.25;;;16.03;100.00
3464;BME280;3551;41.578;24.706;2023-06-04T07:24:14;91648.06;;;16.05;100.00
3464;BME280;3551;41.578;24.706;2023-06-04T07:26:41;91648.47;;;16.23;100.00
3464;BME280;3551;41.578;24.706;2023-06-04T07:29:07;91649.94;;;16.27;100.00
3464;BME280;3551;41.578;24.706;2023-06-04T07:31:34;91651.03;;;16.30;100.00
3464;BME280;3551;41.578;24.706;2023-06-04T07:34:01;91653.53;;;16.21;100.00
3464;BME280;3551;41.578;24.706;2023-06-04T07:36:27;91655.94;;;16.35;100.00
3464;BME280;3551;41.578;24.706;2023-06-04T07:38:56;91647.25;;;16.27;100.00
3464;BME280;3551;41.578;24.706;2023-06-04T07:41:23;91658.72;;;16.51;100.00
3464;BME280;3551;41.578;24.706;2023-06-04T07:43:50;91661.66;;;16.80;100.00
3464;BME280;3551;41.578;24.706;2023-06-04T07:46:17;91661.66;;;16.80;100.00
3464;BME280;3551;41.578;24.706;2023-06-04T07:48:44;91662.88;;;16.75;100.00
3464;BME280;3551;41.578;24.706;2023-06-04T07:51:12;91671.03;;;16.52;100.00
3464;BME280;3551;41.578;24.706;2023-06-04T07:53:39;91665.31;;;16.30;100.00
3464;BME280;3551;41.578;24.706;2023-06-04T07:56:07;91670.81;;;16.23;100.00
3464;BME280;3551;41.578;24.706;2023-06-04T07:58:34;91681.06;;;16.32;100.00
3464;BME280;3551;41.578;24.706;2023-06-04T08:01:01;91679.25;;;16.06;100.00
3464;BME280;3551;41.578;24.706;2023-06-04T08:03:27;91683.56;;;16.23;100.00
3464;BME280;3551;41.578;24.706;2023-06-04T08:05:54;91678.91;;;16.04;100.00
3464;BME280;3551;41.578;24.706;2023-06-04T08:08:20;91686.41;;;16.16;100.00
3464;BME280;3551;41.578;24.706;2023-06-04T08:10:47;91685.16;;;16.20;100.00
3464;BME280;3551;41.578;24.706;2023-06-04T08:13:15;91690.53;;;16.20;100.00
3464;BME280;3551;41.578;24.706;2023-06-04T08:15:42;91688.28;;;16.19;100.00
3464;BME280;3551;41.578;24.706;2023-06-04T08:18:09;91689.25;;;16.28;100.00
3464;BME280;3551;41.578;24.706;2023-06-04T08:20:36;91694.22;;;16.30;100.00
3464;BME280;3551;41.578;24.706;2023-06-04T08:23:02;91697.53;;;16.18;100.00
3464;BME280;3551;41.578;24.706;2023-06-04T08:25:29;91700.19;;;15.98;100.00
3464;BME280;3551;41.578;24.706;2023-06-04T08:27:56;91692.06;;;16.21;100.00
3464;BME280;3551;41.578;24.706;2023-06-04T08:30:25;91688.44;;;16.51;100.00
3464;BME280;3551;41.578;24.706;2023-06-04T08:32:52;91693.41;;;16.53;100.00
3464;BME280;3551;41.578;24.706;2023-06-04T08:35:20;91698.19;;;16.45;100.00
3464;BME280;3551;41.578;24.706;2023-06-04T08:37:47;91702.88;;;16.41;100.00
3464;BME280;3551;41.578;24.706;2023-06-04T08:40:14;91699.47;;;16.17;100.00
3464;BME280;3551;41.578;24.706;2023-06-04T08:42:41;91695.88;;;16.24;100.00
3464;BME280;3551;41.578;24.706;2023-06-04T08:45:10;91696.50;;;16.55;100.00
3464;BME280;3551;41.578;24.706;2023-06-04T08:47:39;91704.97;;;16.53;100.00
3464;BME280;3551;41.578;24.706;2023-06-04T08:50:07;91708.59;;;16.86;100.00
3464;BME280;3551;41.578;24.706;2023-06-04T08:52:39;91702.28;;;16.93;100.00
3464;BME280;3551;41.578;24.706;2023-06-04T08:55:06;91701.72;;;17.01;100.00
3464;BME280;3551;41.578;24.706;2023-06-04T08:57:35;91701.13;;;17.29;100.00
3464;BME280;3551;41.578;24.706;2023-06-04T09:00:01;91706.53;;;17.45;100.00
3464;BME280;3551;41.578;24.706;2023-06-04T09:02:30;91709.47;;;17.35;100.00
3464;BME280;3551;41.578;24.706;2023-06-04T09:04:58;91703.03;;;17.65;100.00
3464;BME280;3551;41.578;24.706;2023-06-04T09:07:27;91703.03;;;17.65;100.00
3464;BME280;3551;41.578;24.706;2023-06-04T09:09:54;91699.09;;;17.50;100.00
3464;BME280;3551;41.578;24.706;2023-06-04T09:12:21;91698.47;;;17.78;100.00
3464;BME280;3551;41.578;24.706;2023-06-04T09:14:49;91696.00;;;17.99;100.00
3464;BME280;3551;41.578;24.706;2023-06-04T09:17:20;91698.75;;;18.28;100.00
3464;BME280;3551;41.578;24.706;2023-06-04T09:19:47;91699.38;;;18.65;100.00
3464;BME280;3551;41.578;24.706;2023-06-04T09:22:15;91705.50;;;18.81;100.00
3464;BME280;3551;41.578;24.706;2023-06-04T09:24:43;91698.69;;;18.89;100.00
3464;BME280;3551;41.578;24.706;2023-06-04T09:27:12;91701.25;;;18.68;100.00
3464;BME280;3551;41.578;24.706;2023-06-04T09:29:39;91695.78;;;18.96;100.00
3464;BME280;3551;41.578;24.706;2023-06-04T09:32:08;91692.13;;;19.16;100.00
3464;BME280;3551;41.578;24.706;2023-06-04T09:34:34;91697.97;;;19.27;100.00
3464;BME280;3551;41.578;24.706;2023-06-04T09:37:01;91692.94;;;19.41;100.00
3464;BME280;3551;41.578;24.706;2023-06-04T09:39:30;91698.03;;;19.64;100.00
3464;BME280;3551;41.578;24.706;2023-06-04T09:41:57;91705.28;;;19.93;100.00
3464;BME280;3551;41.578;24.706;2023-06-04T09:44:24;91692.63;;;20.24;100.00
3464;BME280;3551;41.578;24.706;2023-06-04T09:46:54;91697.00;;;20.09;100.00
3464;BME280;3551;41.578;24.706;2023-06-04T09:49:22;91689.44;;;19.91;100.00
3464;BME280;3551;41.578;24.706;2023-06-04T09:51:49;91693.41;;;20.25;100.00
3464;BME280;3551;41.578;24.706;2023-06-04T09:54:15;91688.81;;;20.68;100.00
3464;BME280;3551;41.578;24.706;2023-06-04T09:56:44;91692.84;;;21.07;100.00
3464;BME280;3551;41.578;24.706;2023-06-04T09:59:10;91690.44;;;21.31;98.13
3464;BME280;3551;41.578;24.706;2023-06-04T10:01:39;91688.09;;;20.99;95.10
3464;BME280;3551;41.578;24.706;2023-06-04T10:04:07;91679.94;;;20.99;94.94
3464;BME280;3551;41.578;24.706;2023-06-04T10:06:34;91689.56;;;20.91;95.68
3464;BME280;3551;41.578;24.706;2023-06-04T10:09:03;91684.16;;;20.22;95.48
3464;BME280;3551;41.578;24.706;2023-06-04T10:11:32;91679.78;;;19.78;93.98
3464;BME280;3551;41.578;24.706;2023-06-04T10:14:03;91677.63;;;19.73;93.32
3464;BME280;3551;41.578;24.706;2023-06-04T10:16:30;91677.88;;;20.12;94.60
3464;BME280;3551;41.578;24.706;2023-06-04T10:18:58;91676.03;;;20.09;92.35
3464;BME280;3551;41.578;24.706;2023-06-04T10:21:25;91675.66;;;19.73;92.62
3464;BME280;3551;41.578;24.706;2023-06-04T10:23:54;91664.53;;;20.05;97.76
3464;BME280;3551;41.578;24.706;2023-06-04T10:26:21;91668.19;;;20.37;100.00
3464;BME280;3551;41.578;24.706;2023-06-04T10:28:48;91669.66;;;20.72;96.95
3464;BME280;3551;41.578;24.706;2023-06-04T10:31:17;91659.72;;;21.21;96.34
3464;BME280;3551;41.578;24.706;2023-06-04T10:33:44;91659.94;;;21.36;91.49
3464;BME280;3551;41.578;24.706;2023-06-04T10:36:18;91660.88;;;21.42;93.54
3464;BME280;3551;41.578;24.706;2023-06-04T10:38:45;91657.47;;;20.98;78.53
3464;BME280;3551;41.578;24.706;2023-06-04T10:41:13;91660.94;;;21.20;66.56
3464;BME280;3551;41.578;24.706;2023-06-04T10:43:39;91667.97;;;21.40;61.28
3464;BME280;3551;41.578;24.706;2023-06-04T10:46:11;91663.63;;;21.51;60.48
3464;BME280;3551;41.578;24.706;2023-06-04T10:48:46;91661.81;;;20.96;61.51
3464;BME280;3551;41.578;24.706;2023-06-04T10:51:12;91662.91;;;21.07;62.74
3464;BME280;3551;41.578;24.706;2023-06-04T10:53:39;91662.34;;;21.34;63.30
3464;BME280;3551;41.578;24.706;2023-06-04T10:56:06;91655.94;;;20.54;61.65
3464;BME280;3551;41.578;24.706;2023-06-04T10:58:33;91642.41;;;20.41;62.16
3464;BME280;3551;41.578;24.706;2023-06-04T11:01:00;91650.50;;;20.75;64.43
3464;BME280;3551;41.578;24.706;2023-06-04T11:03:34;91652.78;;;20.77;65.48
3464;BME280;3551;41.578;24.706;2023-06-04T11:06:02;91651.44;;;20.38;65.19
3464;BME280;3551;41.578;24.706;2023-06-04T11:08:29;91650.03;;;19.87;67.19
3464;BME280;3551;41.578;24.706;2023-06-04T11:10:56;91649.06;;;19.81;65.57
3464;BME280;3551;41.578;24.706;2023-06-04T11:13:24;91650.59;;;19.69;65.14
3464;BME280;3551;41.578;24.706;2023-06-04T11:15:51;91655.94;;;19.47;65.45
3464;BME280;3551;41.578;24.706;2023-06-04T11:18:18;91653.75;;;19.17;65.59
3464;BME280;3551;41.578;24.706;2023-06-04T11:20:46;91653.41;;;19.15;66.13
3464;BME280;3551;41.578;24.706;2023-06-04T11:23:15;91652.84;;;19.07;65.66
3464;BME280;3551;41.578;24.706;2023-06-04T11:25:45;91656.09;;;18.90;64.61
3464;BME280;3551;41.578;24.706;2023-06-04T11:28:17;91659.75;;;18.71;65.97
3464;BME280;3551;41.578;24.706;2023-06-04T11:30:46;91662.00;;;18.72;65.08
3464;BME280;3551;41.578;24.706;2023-06-04T11:33:21;91669.47;;;18.68;64.53
3464;BME280;3551;41.578;24.706;2023-06-04T11:35:48;91672.91;;;18.56;64.39
3464;BME280;3551;41.578;24.706;2023-06-04T11:38:16;91680.53;;;18.45;63.81
3464;BME280;3551;41.578;24.706;2023-06-04T11:40:54;91671.16;;;18.33;64.50
3464;BME280;3551;41.578;24.706;2023-06-04T11:43:20;91681.63;;;18.47;64.68
3464;BME280;3551;41.578;24.706;2023-06-04T11:45:47;91679.19;;;18.37;64.67
3464;BME280;3551;41.578;24.706;2023-06-04T11:48:14;91684.94;;;18.39;63.61
3464;BME280;3551;41.578;24.706;2023-06-04T11:50:41;91680.25;;;18.27;65.01
3464;BME280;3551;41.578;24.706;2023-06-04T11:53:08;91683.00;;;18.39;64.42
3464;BME280;3551;41.578;24.706;2023-06-04T11:55:37;91689.69;;;18.35;64.74
3464;BME280;3551;41.578;24.706;2023-06-04T11:58:04;91688.50;;;18.36;63.78
3464;BME280;3551;41.578;24.706;2023-06-04T12:00:31;91685.47;;;18.50;64.31
3464;BME280;3551;41.578;24.706;2023-06-04T12:02:57;91686.09;;;18.54;64.21
3464;BME280;3551;41.578;24.706;2023-06-04T12:05:28;91693.31;;;18.44;63.24
3464;BME280;3551;41.578;24.706;2023-06-04T12:08:03;91695.69;;;18.42;63.41
3464;BME280;3551;41.578;24.706;2023-06-04T12:10:36;91688.69;;;18.74;63.21
3464;BME280;3551;41.578;24.706;2023-06-04T12:13:04;91688.78;;;18.83;64.32
3464;BME280;3551;41.578;24.706;2023-06-04T12:15:30;91696.97;;;18.95;64.07
3464;BME280;3551;41.578;24.706;2023-06-04T12:17:57;91694.56;;;18.97;62.51
3464;BME280;3551;41.578;24.706;2023-06-04T12:20:31;91696.78;;;19.15;62.84
3464;BME280;3551;41.578;24.706;2023-06-04T12:22:58;91698.34;;;19.29;63.07
3464;BME280;3551;41.578;24.706;2023-06-04T12:25:27;91698.38;;;18.87;61.50
3464;BME280;3551;41.578;24.706;2023-06-04T12:27:54;91696.13;;;19.11;62.06
3464;BME280;3551;41.578;24.706;2023-06-04T12:30:23;91699.94;;;19.14;61.79
3464;BME280;3551;41.578;24.706;2023-06-04T12:32:50;91701.25;;;19.34;61.56
3464;BME280;3551;41.578;24.706;2023-06-04T12:35:17;91701.06;;;19.41;59.69
3464;BME280;3551;41.578;24.706;2023-06-04T12:37:44;91708.97;;;19.23;60.22
3464;BME280;3551;41.578;24.706;2023-06-04T12:40:11;91708.59;;;19.08;60.25
3464;BME280;3551;41.578;24.706;2023-06-04T12:42:38;91708.19;;;19.35;60.97
3464;BME280;3551;41.578;24.706;2023-06-04T12:45:09;91717.34;;;19.54;63.28
3464;BME280;3551;41.578;24.706;2023-06-04T12:47:37;91712.03;;;19.63;62.70
3464;BME280;3551;41.578;24.706;2023-06-04T12:50:04;91710.19;;;19.73;62.70
3464;BME280;3551;41.578;24.706;2023-06-04T12:52:31;91719.31;;;19.79;63.01
3464;BME280;3551;41.578;24.706;2023-06-04T12:54:58;91715.28;;;19.83;63.83
3464;BME280;3551;41.578;24.706;2023-06-04T12:57:24;91710.63;;;19.84;64.93
3464;BME280;3551;41.578;24.706;2023-06-04T12:59:51;91715.06;;;19.90;64.72
3464;BME280;3551;41.578;24.706;2023-06-04T13:02:18;91713.56;;;19.89;65.38
3464;BME280;3551;41.578;24.706;2023-06-04T13:04:47;91715.50;;;20.01;65.15
3464;BME280;3551;41.578;24.706;2023-06-04T13:07:18;91718.22;;;20.01;64.90
3464;BME280;3551;41.578;24.706;2023-06-04T13:09:45;91720.38;;;20.06;63.64
3464;BME280;3551;41.578;24.706;2023-06-04T13:12:11;91714.38;;;20.11;64.25
3464;BME280;3551;41.578;24.706;2023-06-04T13:14:38;91717.22;;;20.08;64.13
3464;BME280;3551;41.578;24.706;2023-06-04T13:17:05;91713.09;;;20.03;62.45
3464;BME280;3551;41.578;24.706;2023-06-04T13:19:31;91709.63;;;20.03;62.08
3464;BME280;3551;41.578;24.706;2023-06-04T13:21:59;91706.13;;;20.02;63.46
3464;BME280;3551;41.578;24.706;2023-06-04T13:24:26;91711.34;;;19.97;64.72
3464;BME280;3551;41.578;24.706;2023-06-04T13:26:53;91708.66;;;19.97;64.79
3464;BME280;3551;41.578;24.706;2023-06-04T13:29:21;91705.97;;;19.84;65.03
3464;BME280;3551;41.578;24.706;2023-06-04T13:31:48;91700.84;;;19.86;65.30
3464;BME280;3551;41.578;24.706;2023-06-04T13:34:15;91704.09;;;19.94;65.46
3464;BME280;3551;41.578;24.706;2023-06-04T13:36:41;91704.44;;;19.83;65.58
3464;BME280;3551;41.578;24.706;2023-06-04T13:39:09;91704.31;;;19.87;65.49
3464;BME280;3551;41.578;24.706;2023-06-04T13:41:36;91693.25;;;19.81;65.68
3464;BME280;3551;41.578;24.706;2023-06-04T13:44:03;91696.28;;;19.83;66.39
3464;BME280;3551;41.578;24.706;2023-06-04T13:46:29;91703.25;;;19.84;65.49
3464;BME280;3551;41.578;24.706;2023-06-04T13:48:56;91698.91;;;19.74;66.68
3464;BME280;3551;41.578;24.706;2023-06-04T13:51:23;91698.03;;;19.77;66.48
3464;BME280;3551;41.578;24.706;2023-06-04T13:53:49;91693.38;;;19.90;66.48
3464;BME280;3551;41.578;24.706;2023-06-04T13:56:20;91687.47;;;19.92;66.10
3464;BME280;3551;41.578;24.706;2023-06-04T13:58:47;91692.56;;;20.02;65.58
3464;BME280;3551;41.578;24.706;2023-06-04T14:01:13;91688.44;;;19.98;65.81
3464;BME280;3551;41.578;24.706;2023-06-04T14:03:40;91683.13;;;20.07;65.65
3464;BME280;3551;41.578;24.706;2023-06-04T14:06:07;91683.69;;;20.02;65.68
3464;BME280;3551;41.578;24.706;2023-06-04T14:08:34;91686.72;;;20.04;65.71
3464;BME280;3551;41.578;24.706;2023-06-04T14:11:00;91686.59;;;19.95;65.84
3464;BME280;3551;41.578;24.706;2023-06-04T14:13:28;91682.34;;;20.06;65.79
3464;BME280;3551;41.578;24.706;2023-06-04T14:15:55;91669.84;;;20.09;65.52
3464;BME280;3551;41.578;24.706;2023-06-04T14:18:21;91672.47;;;20.00;66.63
3464;BME280;3551;41.578;24.706;2023-06-04T14:20:48;91677.56;;;20.10;66.65
3464;BME280;3551;41.578;24.706;2023-06-04T14:23:15;91674.44;;;19.99;66.09
3464;BME280;3551;41.578;24.706;2023-06-04T14:25:42;91674.22;;;19.94;65.99
3464;BME280;3551;41.578;24.706;2023-06-04T14:28:09;91667.59;;;19.95;65.63
3464;BME280;3551;41.578;24.706;2023-06-04T14:30:37;91674.13;;;19.97;65.58
3464;BME280;3551;41.578;24.706;2023-06-04T14:33:03;91675.75;;;19.95;65.65
3464;BME280;3551;41.578;24.706;2023-06-04T14:35:30;91670.09;;;20.02;65.40
3464;BME280;3551;41.578;24.706;2023-06-04T14:37:57;91664.22;;;20.03;66.33
3464;BME280;3551;41.578;24.706;2023-06-04T14:40:23;91668.66;;;20.10;65.57
3464;BME280;3551;41.578;24.706;2023-06-04T14:42:50;91667.69;;;20.16;65.09
3464;BME280;3551;41.578;24.706;2023-06-04T14:45:16;91659.06;;;20.18;65.12
3464;BME280;3551;41.578;24.706;2023-06-04T14:47:47;91660.81;;;20.25;64.48
3464;BME280;3551;41.578;24.706;2023-06-04T14:50:16;91662.56;;;20.31;63.60
3464;BME280;3551;41.578;24.706;2023-06-04T14:52:43;91672.94;;;19.98;63.56
3464;BME280;3551;41.578;24.706;2023-06-04T14:55:11;91657.88;;;19.34;66.43
3464;BME280;3551;41.578;24.706;2023-06-04T14:57:37;91666.47;;;19.45;67.27
3464;BME280;3551;41.578;24.706;2023-06-04T15:00:05;91664.19;;;19.69;67.51
3464;BME280;3551;41.578;24.706;2023-06-04T15:02:31;91658.13;;;19.52;66.64
3464;BME280;3551;41.578;24.706;2023-06-04T15:05:00;91651.59;;;19.50;66.83
3464;BME280;3551;41.578;24.706;2023-06-04T15:07:26;91651.94;;;19.52;67.28
3464;BME280;3551;41.578;24.706;2023-06-04T15:09:53;91656.28;;;19.49;66.31
3464;BME280;3551;41.578;24.706;2023-06-04T15:12:20;91655.56;;;19.07;66.49
3464;BME280;3551;41.578;24.706;2023-06-04T15:14:46;91649.94;;;19.15;67.46
3464;BME280;3551;41.578;24.706;2023-06-04T15:17:13;91648.72;;;18.90;67.70
3464;BME280;3551;41.578;24.706;2023-06-04T15:19:39;91644.56;;;18.73;69.16
3464;BME280;3551;41.578;24.706;2023-06-04T15:22:07;91653.03;;;18.75;69.45
3464;BME280;3551;41.578;24.706;2023-06-04T15:24:34;91655.84;;;18.84;69.73
3464;BME280;3551;41.578;24.706;2023-06-04T15:27:01;91657.94;;;18.93;69.68
3464;BME280;3551;41.578;24.706;2023-06-04T15:29:27;91658.97;;;18.83;70.60
3464;BME280;3551;41.578;24.706;2023-06-04T15:31:54;91651.22;;;18.85;71.49
3464;BME280;3551;41.578;24.706;2023-06-04T15:34:21;91655.22;;;18.93;70.81
3464;BME280;3551;41.578;24.706;2023-06-04T15:36:47;91646.88;;;18.87;72.05
3464;BME280;3551;41.578;24.706;2023-06-04T15:39:15;91654.22;;;18.87;72.70
3464;BME280;3551;41.578;24.706;2023-06-04T15:41:42;91656.53;;;19.01;72.90
3464;BME280;3551;41.578;24.706;2023-06-04T15:44:09;91659.66;;;18.87;72.57
3464;BME280;3551;41.578;24.706;2023-06-04T15:46:35;91659.31;;;18.72;74.12
3464;BME280;3551;41.578;24.706;2023-06-04T15:49:04;91651.47;;;18.62;74.88
3464;BME280;3551;41.578;24.706;2023-06-04T15:51:31;91667.06;;;18.58;75.93
3464;BME280;3551;41.578;24.706;2023-06-04T15:53:58;91670.03;;;18.47;75.56
3464;BME280;3551;41.578;24.706;2023-06-04T15:56:27;91669.88;;;18.38;75.32
3464;BME280;3551;41.578;24.706;2023-06-04T15:58:54;91671.44;;;18.23;77.12
3464;BME280;3551;41.578;24.706;2023-06-04T16:01:21;91674.84;;;18.27;77.21
3464;BME280;3551;41.578;24.706;2023-06-04T16:03:48;91677.47;;;18.14;78.25
3464;BME280;3551;41.578;24.706;2023-06-04T16:06:14;91674.19;;;18.07;79.47
3464;BME280;3551;41.578;24.706;2023-06-04T16:08:41;91679.44;;;17.97;79.94
3464;BME280;3551;41.578;24.706;2023-06-04T16:11:08;91688.91;;;18.06;79.74
3464;BME280;3551;41.578;24.706;2023-06-04T16:13:36;91690.00;;;18.08;79.79
3464;BME280;3551;41.578;24.706;2023-06-04T16:16:02;91690.31;;;18.10;80.07
3464;BME280;3551;41.578;24.706;2023-06-04T16:18:29;91691.13;;;17.94;81.13
3464;BME280;3551;41.578;24.706;2023-06-04T16:20:55;91691.63;;;17.89;82.06
3464;BME280;3551;41.578;24.706;2023-06-04T16:23:22;91696.88;;;17.96;81.74
3464;BME280;3551;41.578;24.706;2023-06-04T16:25:49;91698.22;;;18.33;80.41
3464;BME280;3551;41.578;24.706;2023-06-04T16:28:16;91700.06;;;18.24;80.71
3464;BME280;3551;41.578;24.706;2023-06-04T16:30:44;91700.06;;;18.08;82.13
3464;BME280;3551;41.578;24.706;2023-06-04T16:33:11;91697.34;;;18.24;81.23
3464;BME280;3551;41.578;24.706;2023-06-04T16:35:37;91698.28;;;18.17;80.71
3464;BME280;3551;41.578;24.706;2023-06-04T16:38:04;91700.53;;;18.19;80.90
3464;BME280;3551;41.578;24.706;2023-06-04T16:40:30;91695.56;;;18.01;82.11
3464;BME280;3551;41.578;24.706;2023-06-04T16:42:57;91696.84;;;18.13;81.52
3464;BME280;3551;41.578;24.706;2023-06-04T16:45:24;91700.69;;;18.28;81.11
3464;BME280;3551;41.578;24.706;2023-06-04T16:47:52;91708.13;;;18.56;79.45
3464;BME280;3551;41.578;24.706;2023-06-04T16:50:18;91711.88;;;18.30;79.97
3464;BME280;3551;41.578;24.706;2023-06-04T16:52:45;91713.75;;;18.17;80.46
3464;BME280;3551;41.578;24.706;2023-06-04T16:55:13;91715.94;;;18.38;80.47
3464;BME280;3551;41.578;24.706;2023-06-04T16:57:40;91716.44;;;18.33;80.38
3464;BME280;3551;41.578;24.706;2023-06-04T17:00:07;91715.84;;;18.25;80.56
3464;BME280;3551;41.578;24.706;2023-06-04T17:02:34;91717.63;;;18.32;80.04
3464;BME280;3551;41.578;24.706;2023-06-04T17:05:02;91715.41;;;18.43;79.84
3464;BME280;3551;41.578;24.706;2023-06-04T17:07:29;91722.72;;;18.30;80.27
3464;BME280;3551;41.578;24.706;2023-06-04T17:09:57;91724.41;;;18.24;80.52
3464;BME280;3551;41.578;24.706;2023-06-04T17:12:24;91724.41;;;18.24;80.78
3464;BME280;3551;41.578;24.706;2023-06-04T17:14:50;91727.00;;;18.43;79.60
3464;BME280;3551;41.578;24.706;2023-06-04T17:17:17;91722.81;;;18.26;82.18
3464;BME280;3551;41.578;24.706;2023-06-04T17:19:43;91725.22;;;18.37;80.72
3464;BME280;3551;41.578;24.706;2023-06-04T17:22:14;91730.50;;;18.12;82.59
3464;BME280;3551;41.578;24.706;2023-06-04T17:24:41;91734.44;;;18.39;81.76
3464;BME280;3551;41.578;24.706;2023-06-04T17:27:07;91728.13;;;18.30;82.21
3464;BME280;3551;41.578;24.706;2023-06-04T17:29:34;91727.22;;;18.20;83.01
3464;BME280;3551;41.578;24.706;2023-06-04T17:32:01;91730.00;;;18.33;82.33
3464;BME280;3551;41.578;24.706;2023-06-04T17:34:27;91728.03;;;18.49;81.75
3464;BME280;3551;41.578;24.706;2023-06-04T17:36:54;91736.41;;;18.55;82.14
3464;BME280;3551;41.578;24.706;2023-06-04T17:39:22;91733.94;;;18.61;82.37
3464;BME280;3551;41.578;24.706;2023-06-04T17:41:50;91730.97;;;18.55;83.36
3464;BME280;3551;41.578;24.706;2023-06-04T17:44:16;91733.94;;;18.61;83.88
3464;BME280;3551;41.578;24.706;2023-06-04T17:46:43;91739.09;;;18.55;85.80
3464;BME280;3551;41.578;24.706;2023-06-04T17:49:10;91735.88;;;18.60;85.71
3464;BME280;3551;41.578;24.706;2023-06-04T17:51:38;91735.97;;;18.57;84.97
3464;BME280;3551;41.578;24.706;2023-06-04T17:54:04;91741.50;;;18.53;84.80
3464;BME280;3551;41.578;24.706;2023-06-04T17:56:35;91735.72;;;18.51;84.38
3464;BME280;3551;41.578;24.706;2023-06-04T17:59:02;91733.78;;;18.51;83.36
3464;BME280;3551;41.578;24.706;2023-06-04T18:01:28;91735.81;;;18.47;84.06
3464;BME280;3551;41.578;24.706;2023-06-04T18:03:55;91739.22;;;18.35;85.04
3464;BME280;3551;41.578;24.706;2023-06-04T18:06:22;91736.50;;;18.35;85.46
3464;BME280;3551;41.578;24.706;2023-06-04T18:08:48;91731.94;;;18.32;85.15
3464;BME280;3551;41.578;24.706;2023-06-04T18:11:15;91744.88;;;18.25;86.11